Aérodrome :
LOGIN :

S'inscrire | Disclaimer

   EN    FR    IT 

 










Légende :    VFR   VFR Marginal   IFR   IFR Intensif   IFR Très Intensif
Visi : 
Plafond : 
>= 8 km
>= 3000ft
5 à 8 km
1000 à 3000 ft
1500m à 5 km
500 à 1000 ft
800 à 1500m
200 à 500 ft
< 800m
< 200 ft
Symboles :   Orages  Brouillard  Fortes neiges  Fortes précipitations  Vent > 20 kt
SIGMETs :   Divers  Orages  Givrage  Turbulence  Onde Orograph.  Cendres Volcan.







- Altitude de l'aérodrome : 505 ft
- Code IATA : SXB
- Voir les cartes d'approche


LFST - Strasbourg

DERNIER METAR :
  • 171700Z AUTO 24008KT CAVOK 28/14 Q1017 NOSIG

METARs EXPIRÉS :
  • 171630Z AUTO 27009KT CAVOK 27/15 Q1017 NOSIG
  • 171600Z AUTO 26010KT CAVOK 28/15 Q1017 NOSIG
  • 171530Z AUTO 25007KT 220V290 CAVOK 29/16 Q1017 NOSIG
  • 171500Z AUTO 25006KT 220V280 CAVOK 29/15 Q1017 NOSIG
  • 171430Z AUTO 28011KT CAVOK 30/15 Q1017 BECMG 21006KT

TAF TAF LFST
Valide du 17 à 12h jusqu'au 18 à 12h UTC


171100Z 1712/1812 21006KT 9999 SCT050 BKN200
PROB30
TEMPO 1712/1714 FEW040TCU
BECMG 1716/1718 CAVOK
TEMPO 1810/1812 5000 SHRA FEW050CB BKN055
Pas de NOTAMs connus pour ce terrain.



MET'MAP, la Météo Aéronautique d'un coup d'oeil ! - Copyright ORBIFLY Décembre 2007 - Disclaimer

ORBIFLY MET'MAP TEAM :

Programmation & Développement : Alexandra Zaïnal
Conception & Développement : Baudouin d'Aumeries
Co-Programmation & Développement : Marc-Olivier Méhu
Soutien technique & logistique : Manuel Goepfert

Contact : metmap@orbifly.com




SOURCES & CREDITS :

   NOAA